sensor_id;sensor_type;location;lat;lon;timestamp;P1;durP1;ratioP1;P2;durP2;ratioP2
70946;SDS011;58605;48.700;8.760;2022-09-03T10:03:21;4.75;;;4.32;;
70946;SDS011;58605;48.700;8.760;2022-09-03T10:06:00;5.40;;;5.00;;
70946;SDS011;58605;48.700;8.760;2022-09-03T10:08:49;6.57;;;4.30;;
70946;SDS011;58605;48.700;8.760;2022-09-03T10:11:16;4.82;;;4.43;;
70946;SDS011;58605;48.700;8.760;2022-09-03T10:13:43;4.90;;;4.50;;
70946;SDS011;58605;48.700;8.760;2022-09-03T10:16:14;4.60;;;4.30;;
70946;SDS011;58605;48.700;8.760;2022-09-03T10:18:48;5.18;;;4.70;;
70946;SDS011;58605;48.700;8.760;2022-09-03T10:21:24;6.13;;;4.78;;
70946;SDS011;58605;48.700;8.760;2022-09-03T10:23:58;5.05;;;4.50;;
70946;SDS011;58605;48.700;8.760;2022-09-03T10:26:39;4.50;;;4.20;;
70946;SDS011;58605;48.700;8.760;2022-09-03T10:29:06;5.72;;;4.43;;
70946;SDS011;58605;48.700;8.760;2022-09-03T10:31:41;4.60;;;4.20;;
70946;SDS011;58605;48.700;8.760;2022-09-03T10:34:17;5.30;;;4.85;;
70946;SDS011;58605;48.700;8.760;2022-09-03T10:37:00;5.30;;;4.80;;
70946;SDS011;58605;48.700;8.760;2022-09-03T10:39:35;5.32;;;4.13;;
70946;SDS011;58605;48.700;8.760;2022-09-03T10:42:36;4.90;;;4.43;;
70946;SDS011;58605;48.700;8.760;2022-09-03T10:45:16;4.18;;;3.88;;
70946;SDS011;58605;48.700;8.760;2022-09-03T10:47:53;4.18;;;3.78;;
70946;SDS011;58605;48.700;8.760;2022-09-03T10:50:41;6.25;;;4.80;;
70946;SDS011;58605;48.700;8.760;2022-09-03T10:53:13;4.63;;;4.28;;
70946;SDS011;58605;48.700;8.760;2022-09-03T10:55:54;4.65;;;4.25;;
70946;SDS011;58605;48.700;8.760;2022-09-03T10:58:30;4.45;;;4.10;;
70946;SDS011;58605;48.700;8.760;2022-09-03T11:01:11;5.28;;;3.97;;
70946;SDS011;58605;48.700;8.760;2022-09-03T11:03:43;5.10;;;4.32;;
70946;SDS011;58605;48.700;8.760;2022-09-03T11:06:14;4.38;;;4.07;;
70946;SDS011;58605;48.700;8.760;2022-09-03T11:08:46;4.97;;;4.47;;
70946;SDS011;58605;48.700;8.760;2022-09-03T11:11:19;4.90;;;4.50;;
70946;SDS011;58605;48.700;8.760;2022-09-03T11:13:54;4.35;;;3.95;;
70946;SDS011;58605;48.700;8.760;2022-09-03T11:16:24;5.43;;;4.25;;
70946;SDS011;58605;48.700;8.760;2022-09-03T11:18:56;4.57;;;4.18;;
70946;SDS011;58605;48.700;8.760;2022-09-03T11:21:29;4.82;;;4.43;;
70946;SDS011;58605;48.700;8.760;2022-09-03T11:24:00;4.43;;;4.00;;
70946;SDS011;58605;48.700;8.760;2022-09-03T11:26:34;4.57;;;4.15;;
70946;SDS011;58605;48.700;8.760;2022-09-03T11:29:03;5.00;;;4.60;;
70946;SDS011;58605;48.700;8.760;2022-09-03T11:31:37;4.70;;;4.30;;
70946;SDS011;58605;48.700;8.760;2022-09-03T11:34:26;4.35;;;3.83;;
70946;SDS011;58605;48.700;8.760;2022-09-03T11:37:17;4.63;;;4.22;;
70946;SDS011;58605;48.700;8.760;2022-09-03T11:39:51;4.60;;;4.20;;
70946;SDS011;58605;48.700;8.760;2022-09-03T11:42:27;5.10;;;4.35;;
70946;SDS011;58605;48.700;8.760;2022-09-03T11:44:58;4.47;;;4.07;;
70946;SDS011;58605;48.700;8.760;2022-09-03T11:47:38;4.32;;;3.97;;
70946;SDS011;58605;48.700;8.760;2022-09-03T11:50:07;4.22;;;3.92;;
70946;SDS011;58605;48.700;8.760;2022-09-03T11:52:46;4.90;;;4.32;;
70946;SDS011;58605;48.700;8.760;2022-09-03T11:55:23;4.25;;;3.95;;
70946;SDS011;58605;48.700;8.760;2022-09-03T11:57:54;4.43;;;4.05;;
70946;SDS011;58605;48.700;8.760;2022-09-03T12:00:23;4.47;;;4.18;;
70946;SDS011;58605;48.700;8.760;2022-09-03T12:02:49;3.47;;;3.28;;
70946;SDS011;58605;48.700;8.760;2022-09-03T12:05:22;4.20;;;3.90;;
70946;SDS011;58605;48.700;8.760;2022-09-03T12:10:53;6.00;;;3.50;;
70946;SDS011;58605;48.700;8.760;2022-09-03T12:13:33;4.72;;;3.45;;
70946;SDS011;58605;48.700;8.760;2022-09-03T12:16:30;5.22;;;2.90;;
70946;SDS011;58605;48.700;8.760;2022-09-03T12:19:10;4.72;;;3.20;;
70946;SDS011;58605;48.700;8.760;2022-09-03T12:21:49;3.10;;;2.80;;
70946;SDS011;58605;48.700;8.760;2022-09-03T12:24:18;3.85;;;2.72;;
70946;SDS011;58605;48.700;8.760;2022-09-03T12:26:44;3.88;;;2.47;;
70946;SDS011;58605;48.700;8.760;2022-09-03T12:29:22;4.20;;;2.50;;
70946;SDS011;58605;48.700;8.760;2022-09-03T12:31:49;3.83;;;2.63;;
70946;SDS011;58605;48.700;8.760;2022-09-03T12:34:16;6.00;;;2.70;;
70946;SDS011;58605;48.700;8.760;2022-09-03T12:36:43;4.18;;;2.40;;
70946;SDS011;58605;48.700;8.760;2022-09-03T12:39:11;3.20;;;2.90;;
70946;SDS011;58605;48.700;8.760;2022-09-03T12:41:50;4.60;;;2.80;;
70946;SDS011;58605;48.700;8.760;2022-09-03T12:44:24;5.10;;;3.03;;
70946;SDS011;58605;48.700;8.760;2022-09-03T12:46:58;3.90;;;2.55;;
70946;SDS011;58605;48.700;8.760;2022-09-03T12:49:35;3.10;;;2.65;;
70946;SDS011;58605;48.700;8.760;2022-09-03T12:52:04;3.72;;;3.00;;
70946;SDS011;58605;48.700;8.760;2022-09-03T12:54:37;4.72;;;2.78;;
70946;SDS011;58605;48.700;8.760;2022-09-03T12:57:09;5.35;;;2.85;;
70946;SDS011;58605;48.700;8.760;2022-09-03T12:59:38;3.30;;;2.53;;
70946;SDS011;58605;48.700;8.760;2022-09-03T13:02:15;3.00;;;2.60;;
70946;SDS011;58605;48.700;8.760;2022-09-03T13:04:54;3.03;;;2.72;;
70946;SDS011;58605;48.700;8.760;2022-09-03T13:07:22;2.90;;;2.60;;
70946;SDS011;58605;48.700;8.760;2022-09-03T13:09:56;5.72;;;3.08;;
70946;SDS011;58605;48.700;8.760;2022-09-03T13:12:30;2.70;;;2.50;;
70946;SDS011;58605;48.700;8.760;2022-09-03T13:15:06;12.32;;;3.05;;
70946;SDS011;58605;48.700;8.760;2022-09-03T13:20:32;2.58;;;2.30;;
70946;SDS011;58605;48.700;8.760;2022-09-03T13:23:08;3.78;;;2.63;;
70946;SDS011;58605;48.700;8.760;2022-09-03T13:25:56;3.58;;;2.58;;
70946;SDS011;58605;48.700;8.760;2022-09-03T13:28:37;3.20;;;2.22;;
70946;SDS011;58605;48.700;8.760;2022-09-03T13:31:21;3.75;;;3.22;;
70946;SDS011;58605;48.700;8.760;2022-09-03T13:33:54;2.85;;;2.65;;
70946;SDS011;58605;48.700;8.760;2022-09-03T13:36:26;3.25;;;2.95;;
70946;SDS011;58605;48.700;8.760;2022-09-03T13:38:56;5.15;;;3.00;;
70946;SDS011;58605;48.700;8.760;2022-09-03T13:41:32;2.97;;;2.78;;
70946;SDS011;58605;48.700;8.760;2022-09-03T13:44:05;3.13;;;2.85;;
70946;SDS011;58605;48.700;8.760;2022-09-03T13:46:39;3.42;;;2.90;;
70946;SDS011;58605;48.700;8.760;2022-09-03T13:49:12;2.95;;;2.70;;
70946;SDS011;58605;48.700;8.760;2022-09-03T13:52:10;4.60;;;3.03;;
70946;SDS011;58605;48.700;8.760;2022-09-03T13:54:45;3.55;;;3.10;;
70946;SDS011;58605;48.700;8.760;2022-09-03T13:57:20;2.88;;;2.67;;
70946;SDS011;58605;48.700;8.760;2022-09-03T13:59:55;3.22;;;2.92;;
70946;SDS011;58605;48.700;8.760;2022-09-03T14:02:26;3.38;;;3.03;;
70946;SDS011;58605;48.700;8.760;2022-09-03T14:05:00;3.58;;;3.28;;
70946;SDS011;58605;48.700;8.760;2022-09-03T14:07:37;4.68;;;3.33;;
70946;SDS011;58605;48.700;8.760;2022-09-03T14:10:18;4.13;;;3.72;;
70946;SDS011;58605;48.700;8.760;2022-09-03T14:12:49;5.10;;;3.63;;
70946;SDS011;58605;48.700;8.760;2022-09-03T14:15:29;3.25;;;3.05;;
70946;SDS011;58605;48.700;8.760;2022-09-03T14:18:01;4.10;;;2.85;;
70946;SDS011;58605;48.700;8.760;2022-09-03T14:20:35;3.60;;;3.30;;
70946;SDS011;58605;48.700;8.760;2022-09-03T14:23:21;3.55;;;3.25;;
70946;SDS011;58605;48.700;8.760;2022-09-03T14:25:52;4.03;;;3.03;;
70946;SDS011;58605;48.700;8.760;2022-09-03T14:28:23;5.68;;;3.53;;
70946;SDS011;58605;48.700;8.760;2022-09-03T14:30:56;3.35;;;3.08;;
70946;SDS011;58605;48.700;8.760;2022-09-03T14:33:31;3.25;;;2.95;;
70946;SDS011;58605;48.700;8.760;2022-09-03T14:36:12;3.60;;;3.30;;
70946;SDS011;58605;48.700;8.760;2022-09-03T14:38:51;3.20;;;2.90;;
70946;SDS011;58605;48.700;8.760;2022-09-03T14:41:55;3.63;;;3.28;;
70946;SDS011;58605;48.700;8.760;2022-09-03T14:47:41;3.45;;;3.15;;
70946;SDS011;58605;48.700;8.760;2022-09-03T14:50:33;3.45;;;3.15;;
70946;SDS011;58605;48.700;8.760;2022-09-03T14:53:18;3.50;;;3.20;;
70946;SDS011;58605;48.700;8.760;2022-09-03T14:56:15;3.95;;;3.58;;
70946;SDS011;58605;48.700;8.760;2022-09-03T14:58:55;3.20;;;2.90;;
70946;SDS011;58605;48.700;8.760;2022-09-03T15:01:32;3.47;;;2.80;;
70946;SDS011;58605;48.700;8.760;2022-09-03T15:04:17;3.03;;;2.83;;
70946;SDS011;58605;48.700;8.760;2022-09-03T15:07:20;4.53;;;2.60;;
70946;SDS011;58605;48.700;8.760;2022-09-03T15:09:57;3.30;;;3.00;;
70946;SDS011;58605;48.700;8.760;2022-09-03T15:12:33;3.38;;;3.08;;
70946;SDS011;58605;48.700;8.760;2022-09-03T15:15:04;3.33;;;3.00;;
70946;SDS011;58605;48.700;8.760;2022-09-03T15:17:46;3.30;;;3.00;;
70946;SDS011;58605;48.700;8.760;2022-09-03T15:20:42;3.30;;;2.60;;
70946;SDS011;58605;48.700;8.760;2022-09-03T15:23:22;3.20;;;2.90;;
70946;SDS011;58605;48.700;8.760;2022-09-03T15:26:08;3.30;;;3.00;;
70946;SDS011;58605;48.700;8.760;2022-09-03T15:29:03;4.22;;;2.92;;
70946;SDS011;58605;48.700;8.760;2022-09-03T15:31:44;4.10;;;3.00;;
70946;SDS011;58605;48.700;8.760;2022-09-03T15:34:22;3.30;;;3.00;;
70946;SDS011;58605;48.700;8.760;2022-09-03T15:37:01;3.13;;;2.70;;
70946;SDS011;58605;48.700;8.760;2022-09-03T15:39:36;3.63;;;2.92;;
70946;SDS011;58605;48.700;8.760;2022-09-03T15:42:07;3.33;;;3.10;;
70946;SDS011;58605;48.700;8.760;2022-09-03T15:44:40;3.25;;;2.95;;
70946;SDS011;58605;48.700;8.760;2022-09-03T15:47:11;2.83;;;2.50;;
70946;SDS011;58605;48.700;8.760;2022-09-03T15:49:53;5.55;;;3.17;;
70946;SDS011;58605;48.700;8.760;2022-09-03T15:52:30;3.10;;;2.90;;
70946;SDS011;58605;48.700;8.760;2022-09-03T15:55:09;3.05;;;2.80;;
70946;SDS011;58605;48.700;8.760;2022-09-03T15:57:40;3.22;;;3.03;;
70946;SDS011;58605;48.700;8.760;2022-09-03T16:00:12;3.33;;;3.00;;
70946;SDS011;58605;48.700;8.760;2022-09-03T16:02:44;2.88;;;2.67;;
70946;SDS011;58605;48.700;8.760;2022-09-03T16:05:15;2.90;;;2.70;;
70946;SDS011;58605;48.700;8.760;2022-09-03T16:07:52;3.38;;;3.08;;
70946;SDS011;58605;48.700;8.760;2022-09-03T16:10:32;3.47;;;3.10;;
70946;SDS011;58605;48.700;8.760;2022-09-03T16:13:06;3.00;;;2.80;;
70946;SDS011;58605;48.700;8.760;2022-09-03T16:15:44;3.00;;;2.50;;
70946;SDS011;58605;48.700;8.760;2022-09-03T16:18:13;3.08;;;2.70;;
70946;SDS011;58605;48.700;8.760;2022-09-03T16:20:48;3.22;;;3.03;;
70946;SDS011;58605;48.700;8.760;2022-09-03T16:23:24;3.60;;;3.30;;
70946;SDS011;58605;48.700;8.760;2022-09-03T16:25:56;3.63;;;3.33;;
70946;SDS011;58605;48.700;8.760;2022-09-03T16:28:30;3.50;;;3.20;;
70946;SDS011;58605;48.700;8.760;2022-09-03T16:31:03;3.53;;;3.22;;
70946;SDS011;58605;48.700;8.760;2022-09-03T16:33:38;4.53;;;3.20;;
70946;SDS011;58605;48.700;8.760;2022-09-03T16:36:17;4.18;;;3.78;;
70946;SDS011;58605;48.700;8.760;2022-09-03T16:38:57;3.45;;;3.15;;
70946;SDS011;58605;48.700;8.760;2022-09-03T16:41:28;3.03;;;2.83;;
70946;SDS011;58605;48.700;8.760;2022-09-03T16:44:00;3.08;;;2.78;;
70946;SDS011;58605;48.700;8.760;2022-09-03T16:46:35;3.10;;;2.80;;
70946;SDS011;58605;48.700;8.760;2022-09-03T16:49:11;3.92;;;3.22;;
70946;SDS011;58605;48.700;8.760;2022-09-03T16:51:52;3.60;;;3.30;;
70946;SDS011;58605;48.700;8.760;2022-09-03T16:54:25;3.17;;;2.88;;
70946;SDS011;58605;48.700;8.760;2022-09-03T16:57:06;3.00;;;2.80;;
70946;SDS011;58605;48.700;8.760;2022-09-03T16:59:52;3.53;;;3.22;;
70946;SDS011;58605;48.700;8.760;2022-09-03T17:02:30;5.78;;;3.22;;
70946;SDS011;58605;48.700;8.760;2022-09-03T17:08:28;3.35;;;3.00;;
70946;SDS011;58605;48.700;8.760;2022-09-03T17:11:08;3.83;;;3.25;;
70946;SDS011;58605;48.700;8.760;2022-09-03T17:13:46;3.47;;;2.92;;
70946;SDS011;58605;48.700;8.760;2022-09-03T17:16:37;3.00;;;2.70;;
70946;SDS011;58605;48.700;8.760;2022-09-03T17:19:12;3.72;;;2.90;;
70946;SDS011;58605;48.700;8.760;2022-09-03T17:21:47;3.47;;;2.83;;
70946;SDS011;58605;48.700;8.760;2022-09-03T17:27:07;2.88;;;2.60;;
70946;SDS011;58605;48.700;8.760;2022-09-03T17:29:49;3.15;;;2.95;;
70946;SDS011;58605;48.700;8.760;2022-09-03T17:32:29;3.25;;;2.90;;
70946;SDS011;58605;48.700;8.760;2022-09-03T17:35:10;3.63;;;3.33;;
70946;SDS011;58605;48.700;8.760;2022-09-03T17:37:46;3.47;;;2.78;;
70946;SDS011;58605;48.700;8.760;2022-09-03T17:40:24;3.42;;;3.13;;
70946;SDS011;58605;48.700;8.760;2022-09-03T17:43:00;3.10;;;2.90;;
70946;SDS011;58605;48.700;8.760;2022-09-03T17:45:36;3.42;;;3.08;;
70946;SDS011;58605;48.700;8.760;2022-09-03T17:48:12;3.58;;;3.28;;
70946;SDS011;58605;48.700;8.760;2022-09-03T17:50:50;4.43;;;3.72;;
70946;SDS011;58605;48.700;8.760;2022-09-03T17:53:21;3.63;;;3.28;;
70946;SDS011;58605;48.700;8.760;2022-09-03T17:55:55;3.95;;;3.65;;
70946;SDS011;58605;48.700;8.760;2022-09-03T17:58:28;4.50;;;3.25;;
70946;SDS011;58605;48.700;8.760;2022-09-03T18:01:00;3.60;;;3.30;;
70946;SDS011;58605;48.700;8.760;2022-09-03T18:03:32;3.90;;;3.60;;
70946;SDS011;58605;48.700;8.760;2022-09-03T18:06:08;3.78;;;3.47;;
70946;SDS011;58605;48.700;8.760;2022-09-03T18:08:44;4.97;;;3.50;;
70946;SDS011;58605;48.700;8.760;2022-09-03T18:11:17;3.55;;;3.25;;
70946;SDS011;58605;48.700;8.760;2022-09-03T18:13:49;4.45;;;3.60;;
70946;SDS011;58605;48.700;8.760;2022-09-03T18:16:24;4.65;;;3.80;;
70946;SDS011;58605;48.700;8.760;2022-09-03T18:18:52;3.92;;;3.53;;
70946;SDS011;58605;48.700;8.760;2022-09-03T18:21:25;4.28;;;3.75;;
70946;SDS011;58605;48.700;8.760;2022-09-03T18:24:22;4.38;;;3.70;;
70946;SDS011;58605;48.700;8.760;2022-09-03T18:27:12;5.95;;;3.67;;
70946;SDS011;58605;48.700;8.760;2022-09-03T18:30:03;6.25;;;3.60;;
70946;SDS011;58605;48.700;8.760;2022-09-03T18:32:49;4.60;;;3.58;;
70946;SDS011;58605;48.700;8.760;2022-09-03T18:35:34;4.22;;;3.83;;
70946;SDS011;58605;48.700;8.760;2022-09-03T18:38:22;4.45;;;4.05;;
70946;SDS011;58605;48.700;8.760;2022-09-03T18:41:11;5.40;;;4.47;;
70946;SDS011;58605;48.700;8.760;2022-09-03T18:44:09;7.40;;;4.95;;
70946;SDS011;58605;48.700;8.760;2022-09-03T18:47:05;5.93;;;4.45;;
70946;SDS011;58605;48.700;8.760;2022-09-03T18:50:11;4.63;;;4.22;;
70946;SDS011;58605;48.700;8.760;2022-09-03T18:53:05;4.70;;;4.25;;
70946;SDS011;58605;48.700;8.760;2022-09-03T18:55:56;6.07;;;5.18;;
70946;SDS011;58605;48.700;8.760;2022-09-03T18:58:52;6.22;;;4.53;;
70946;SDS011;58605;48.700;8.760;2022-09-03T19:01:48;6.32;;;4.75;;
70946;SDS011;58605;48.700;8.760;2022-09-03T19:04:39;4.95;;;4.55;;
70946;SDS011;58605;48.700;8.760;2022-09-03T19:07:36;5.30;;;4.75;;
70946;SDS011;58605;48.700;8.760;2022-09-03T19:10:33;6.10;;;4.95;;
70946;SDS011;58605;48.700;8.760;2022-09-03T19:13:26;4.82;;;4.03;;
70946;SDS011;58605;48.700;8.760;2022-09-03T19:16:18;8.07;;;4.97;;
70946;SDS011;58605;48.700;8.760;2022-09-03T19:19:15;5.43;;;4.93;;
70946;SDS011;58605;48.700;8.760;2022-09-03T19:22:16;5.88;;;5.30;;
70946;SDS011;58605;48.700;8.760;2022-09-03T19:25:09;5.35;;;4.65;;
70946;SDS011;58605;48.700;8.760;2022-09-03T19:27:59;6.45;;;5.45;;
70946;SDS011;58605;48.700;8.760;2022-09-03T19:30:55;6.55;;;4.93;;
70946;SDS011;58605;48.700;8.760;2022-09-03T19:33:59;6.50;;;5.20;;
70946;SDS011;58605;48.700;8.760;2022-09-03T19:36:50;9.60;;;5.70;;
70946;SDS011;58605;48.700;8.760;2022-09-03T19:39:47;5.30;;;4.72;;
70946;SDS011;58605;48.700;8.760;2022-09-03T19:42:46;7.40;;;4.93;;
70946;SDS011;58605;48.700;8.760;2022-09-03T19:45:39;6.68;;;5.70;;
70946;SDS011;58605;48.700;8.760;2022-09-03T19:48:35;6.85;;;5.90;;
70946;SDS011;58605;48.700;8.760;2022-09-03T19:51:31;7.18;;;5.72;;
70946;SDS011;58605;48.700;8.760;2022-09-03T19:54:22;9.40;;;5.55;;
70946;SDS011;58605;48.700;8.760;2022-09-03T19:57:11;5.35;;;4.70;;
70946;SDS011;58605;48.700;8.760;2022-09-03T19:59:58;6.47;;;4.80;;
70946;SDS011;58605;48.700;8.760;2022-09-03T20:02:45;5.38;;;4.90;;
70946;SDS011;58605;48.700;8.760;2022-09-03T20:05:31;6.25;;;5.75;;
70946;SDS011;58605;48.700;8.760;2022-09-03T20:08:16;6.83;;;5.20;;
70946;SDS011;58605;48.700;8.760;2022-09-03T20:11:04;5.80;;;5.30;;
70946;SDS011;58605;48.700;8.760;2022-09-03T20:13:34;10.30;;;5.80;;
70946;SDS011;58605;48.700;8.760;2022-09-03T20:16:23;6.03;;;4.93;;
70946;SDS011;58605;48.700;8.760;2022-09-03T20:18:55;6.25;;;5.72;;
70946;SDS011;58605;48.700;8.760;2022-09-03T20:21:29;6.10;;;5.50;;
70946;SDS011;58605;48.700;8.760;2022-09-03T20:24:07;6.07;;;5.20;;
70946;SDS011;58605;48.700;8.760;2022-09-03T20:26:47;6.13;;;5.53;;
70946;SDS011;58605;48.700;8.760;2022-09-03T20:29:31;7.07;;;5.38;;
70946;SDS011;58605;48.700;8.760;2022-09-03T20:32:10;6.80;;;5.90;;
70946;SDS011;58605;48.700;8.760;2022-09-03T20:34:44;6.83;;;5.93;;
70946;SDS011;58605;48.700;8.760;2022-09-03T20:37:18;6.93;;;6.33;;
70946;SDS011;58605;48.700;8.760;2022-09-03T20:40:04;6.72;;;6.10;;
70946;SDS011;58605;48.700;8.760;2022-09-03T20:42:49;7.18;;;6.10;;
70946;SDS011;58605;48.700;8.760;2022-09-03T20:45:34;7.20;;;6.40;;
70946;SDS011;58605;48.700;8.760;2022-09-03T20:48:11;7.68;;;6.97;;
70946;SDS011;58605;48.700;8.760;2022-09-03T20:50:50;6.90;;;6.20;;
70946;SDS011;58605;48.700;8.760;2022-09-03T20:53:32;7.72;;;6.25;;
70946;SDS011;58605;48.700;8.760;2022-09-03T20:56:29;6.87;;;6.27;;
70946;SDS011;58605;48.700;8.760;2022-09-03T20:59:02;7.07;;;6.43;;
70946;SDS011;58605;48.700;8.760;2022-09-03T21:01:44;6.25;;;5.75;;
70946;SDS011;58605;48.700;8.760;2022-09-03T21:04:22;7.50;;;5.22;;
70946;SDS011;58605;48.700;8.760;2022-09-03T21:07:02;5.90;;;5.40;;
70946;SDS011;58605;48.700;8.760;2022-09-03T21:09:37;6.13;;;5.23;;
70946;SDS011;58605;48.700;8.760;2022-09-03T21:12:11;6.93;;;6.22;;
70946;SDS011;58605;48.700;8.760;2022-09-03T21:14:44;6.83;;;5.07;;
70946;SDS011;58605;48.700;8.760;2022-09-03T21:17:30;5.70;;;5.20;;
70946;SDS011;58605;48.700;8.760;2022-09-03T21:20:09;5.67;;;5.17;;
70946;SDS011;58605;48.700;8.760;2022-09-03T21:22:50;6.80;;;5.43;;
70946;SDS011;58605;48.700;8.760;2022-09-03T21:25:31;5.60;;;5.10;;
70946;SDS011;58605;48.700;8.760;2022-09-03T21:28:02;5.43;;;4.93;;
70946;SDS011;58605;48.700;8.760;2022-09-03T21:30:32;5.00;;;4.47;;
70946;SDS011;58605;48.700;8.760;2022-09-03T21:33:08;8.50;;;4.73;;
70946;SDS011;58605;48.700;8.760;2022-09-03T21:35:40;5.73;;;4.67;;
70946;SDS011;58605;48.700;8.760;2022-09-03T21:38:12;5.97;;;5.40;;
70946;SDS011;58605;48.700;8.760;2022-09-03T21:40:42;6.23;;;5.60;;
70946;SDS011;58605;48.700;8.760;2022-09-03T21:43:14;6.23;;;4.77;;
70946;SDS011;58605;48.700;8.760;2022-09-03T21:45:45;6.00;;;5.40;;
70946;SDS011;58605;48.700;8.760;2022-09-03T21:48:20;6.93;;;5.80;;
70946;SDS011;58605;48.700;8.760;2022-09-03T21:50:51;5.85;;;5.28;;
70946;SDS011;58605;48.700;8.760;2022-09-03T21:53:23;5.43;;;4.93;;
70946;SDS011;58605;48.700;8.760;2022-09-03T21:55:57;5.73;;;5.13;;
70946;SDS011;58605;48.700;8.760;2022-09-03T21:58:42;5.50;;;4.70;;
70946;SDS011;58605;48.700;8.760;2022-09-03T22:01:18;5.85;;;5.05;;
70946;SDS011;58605;48.700;8.760;2022-09-03T22:03:52;5.00;;;4.60;;
70946;SDS011;58605;48.700;8.760;2022-09-03T22:06:21;5.77;;;5.27;;
70946;SDS011;58605;48.700;8.760;2022-09-03T22:08:53;6.30;;;5.37;;
70946;SDS011;58605;48.700;8.760;2022-09-03T22:11:26;5.97;;;4.93;;
70946;SDS011;58605;48.700;8.760;2022-09-03T22:13:58;5.63;;;5.13;;
70946;SDS011;58605;48.700;8.760;2022-09-03T22:16:29;7.07;;;4.97;;
70946;SDS011;58605;48.700;8.760;2022-09-03T22:19:03;5.37;;;4.87;;
70946;SDS011;58605;48.700;8.760;2022-09-03T22:21:33;7.33;;;4.87;;
70946;SDS011;58605;48.700;8.760;2022-09-03T22:24:06;5.07;;;4.57;;
70946;SDS011;58605;48.700;8.760;2022-09-03T22:26:48;5.10;;;4.37;;
70946;SDS011;58605;48.700;8.760;2022-09-03T22:29:23;6.07;;;5.47;;
70946;SDS011;58605;48.700;8.760;2022-09-03T22:32:00;6.00;;;5.20;;
70946;SDS011;58605;48.700;8.760;2022-09-03T22:34:44;5.33;;;4.83;;
70946;SDS011;58605;48.700;8.760;2022-09-03T22:37:22;7.30;;;5.10;;
70946;SDS011;58605;48.700;8.760;2022-09-03T22:40:01;5.40;;;4.90;;
70946;SDS011;58605;48.700;8.760;2022-09-03T22:45:46;5.37;;;4.73;;
70946;SDS011;58605;48.700;8.760;2022-09-03T22:48:27;6.30;;;4.40;;
70946;SDS011;58605;48.700;8.760;2022-09-03T22:51:02;7.03;;;5.07;;
70946;SDS011;58605;48.700;8.760;2022-09-03T22:53:35;5.13;;;4.73;;
70946;SDS011;58605;48.700;8.760;2022-09-03T22:56:11;5.63;;;5.13;;
70946;SDS011;58605;48.700;8.760;2022-09-03T22:58:41;5.60;;;5.10;;
70946;SDS011;58605;48.700;8.760;2022-09-03T23:01:12;5.60;;;5.10;;
70946;SDS011;58605;48.700;8.760;2022-09-03T23:03:43;6.00;;;5.50;;
70946;SDS011;58605;48.700;8.760;2022-09-03T23:06:16;5.57;;;5.13;;
70946;SDS011;58605;48.700;8.760;2022-09-03T23:08:51;5.47;;;4.90;;
70946;SDS011;58605;48.700;8.760;2022-09-03T23:11:23;6.20;;;4.67;;
70946;SDS011;58605;48.700;8.760;2022-09-03T23:13:55;5.97;;;5.03;;
70946;SDS011;58605;48.700;8.760;2022-09-03T23:16:28;7.73;;;5.00;;
70946;SDS011;58605;48.700;8.760;2022-09-03T23:19:02;5.60;;;5.10;;
70946;SDS011;58605;48.700;8.760;2022-09-03T23:21:42;5.13;;;4.70;;
70946;SDS011;58605;48.700;8.760;2022-09-03T23:24:15;5.40;;;4.70;;
70946;SDS011;58605;48.700;8.760;2022-09-03T23:26:47;5.67;;;5.17;;
70946;SDS011;58605;48.700;8.760;2022-09-03T23:29:17;6.50;;;6.00;;
70946;SDS011;58605;48.700;8.760;2022-09-03T23:31:54;6.20;;;5.60;;
70946;SDS011;58605;48.700;8.760;2022-09-03T23:34:21;7.20;;;5.77;;
70946;SDS011;58605;48.700;8.760;2022-09-03T23:36:51;7.03;;;5.80;;
70946;SDS011;58605;48.700;8.760;2022-09-03T23:39:37;6.33;;;5.80;;
70946;SDS011;58605;48.700;8.760;2022-09-03T23:42:21;6.97;;;6.20;;
70946;SDS011;58605;48.700;8.760;2022-09-03T23:45:00;6.83;;;6.23;;
70946;SDS011;58605;48.700;8.760;2022-09-03T23:47:38;8.07;;;5.90;;
70946;SDS011;58605;48.700;8.760;2022-09-03T23:50:10;7.93;;;5.90;;
70946;SDS011;58605;48.700;8.760;2022-09-03T23:53:02;7.80;;;6.33;;
70946;SDS011;58605;48.700;8.760;2022-09-03T23:55:47;19.13;;;7.03;;
70946;SDS011;58605;48.700;8.760;2022-09-03T23:58:23;6.47;;;5.90;;
